createdAt,value
2023-05-06T00:01:00.983Z,90.13
2023-05-06T00:03:28.317Z,90.22
2023-05-06T00:05:55.508Z,90.16
2023-05-06T00:08:22.014Z,90.49
2023-05-06T00:10:48.675Z,90.55
2023-05-06T00:13:16.170Z,90.34
2023-05-06T00:15:42.797Z,89.95
2023-05-06T00:18:09.599Z,90.47
2023-05-06T00:20:36.339Z,90.69
2023-05-06T00:23:02.834Z,90.37
2023-05-06T00:25:29.362Z,90.33
2023-05-06T00:27:55.847Z,90.34
2023-05-06T00:30:22.838Z,90.42
2023-05-06T00:32:49.384Z,90.65
2023-05-06T00:35:16.082Z,90.69
2023-05-06T00:37:46.670Z,91.39
2023-05-06T00:40:14.277Z,91.26
2023-05-06T00:42:40.827Z,91.72
2023-05-06T00:45:08.052Z,91.94
2023-05-06T00:47:35.972Z,91.78
2023-05-06T00:50:03.031Z,91.98
2023-05-06T00:52:29.585Z,92.52
2023-05-06T00:54:56.493Z,92.58
2023-05-06T00:57:23.486Z,92.73
2023-05-06T00:59:50.025Z,92.47
2023-05-06T01:02:16.647Z,92.96
2023-05-06T01:04:43.420Z,92.92
2023-05-06T01:07:34.282Z,92.80
2023-05-06T01:10:11.193Z,93.03
2023-05-06T01:12:46.564Z,93.15
2023-05-06T01:15:13.094Z,93.22
2023-05-06T01:17:44.067Z,93.47
2023-05-06T01:20:12.149Z,93.50
2023-05-06T01:22:39.328Z,93.52
2023-05-06T01:25:06.510Z,93.54
2023-05-06T01:27:33.222Z,93.82
2023-05-06T01:30:00.695Z,93.85
2023-05-06T01:32:33.174Z,93.81
2023-05-06T01:35:05.648Z,94.16
2023-05-06T01:37:34.330Z,94.14
2023-05-06T01:40:00.991Z,94.26
2023-05-06T01:42:27.893Z,94.29
2023-05-06T01:44:55.740Z,94.58
2023-05-06T01:47:22.518Z,94.49
2023-05-06T01:49:49.078Z,94.60
2023-05-06T01:52:16.149Z,94.79
2023-05-06T01:54:42.764Z,94.97
2023-05-06T01:57:09.292Z,94.82
2023-05-06T01:59:35.886Z,95.03
2023-05-06T02:02:02.414Z,95.12
2023-05-06T02:04:29.145Z,95.18
2023-05-06T02:06:55.635Z,95.03
2023-05-06T02:09:22.219Z,94.92
2023-05-06T02:11:48.691Z,95.31
2023-05-06T02:14:15.178Z,95.38
2023-05-06T02:16:41.737Z,95.31
2023-05-06T02:19:08.287Z,95.01
2023-05-06T02:21:34.938Z,95.08
2023-05-06T02:24:01.430Z,95.17
2023-05-06T02:26:27.928Z,95.27
2023-05-06T02:28:54.424Z,95.39
2023-05-06T02:31:21.137Z,95.34
2023-05-06T02:33:47.699Z,95.48
2023-05-06T02:36:14.215Z,95.79
2023-05-06T02:38:40.894Z,95.76
2023-05-06T02:41:07.491Z,95.82
2023-05-06T02:43:33.986Z,95.97
2023-05-06T02:46:00.569Z,95.88
2023-05-06T02:48:27.205Z,95.96
2023-05-06T02:50:53.762Z,95.70
2023-05-06T02:53:20.253Z,95.60
2023-05-06T02:55:46.889Z,95.49
2023-05-06T02:58:13.414Z,95.06
2023-05-06T03:00:39.989Z,95.15
2023-05-06T03:03:06.655Z,95.12
2023-05-06T03:05:33.241Z,94.95
2023-05-06T03:07:59.760Z,94.96
2023-05-06T03:10:26.290Z,94.93
2023-05-06T03:12:52.920Z,95.02
2023-05-06T03:15:19.519Z,94.58
2023-05-06T03:17:47.480Z,94.58
2023-05-06T03:20:14.027Z,94.60
2023-05-06T03:22:42.295Z,94.47
2023-05-06T03:25:09.101Z,94.22
2023-05-06T03:27:36.140Z,94.42
2023-05-06T03:30:02.996Z,94.57
2023-05-06T03:32:29.587Z,94.36
2023-05-06T03:34:56.231Z,94.29
2023-05-06T03:37:22.753Z,94.29
2023-05-06T03:39:49.288Z,94.28
2023-05-06T03:42:16.197Z,94.52
2023-05-06T03:44:42.708Z,94.53
2023-05-06T03:47:09.239Z,94.37
2023-05-06T03:49:35.736Z,94.29
2023-05-06T03:52:02.320Z,94.52
2023-05-06T03:54:28.940Z,94.44
2023-05-06T03:56:55.565Z,94.53
2023-05-06T03:59:22.078Z,94.55
2023-05-06T04:01:48.634Z,94.23
2023-05-06T04:04:15.144Z,93.99
2023-05-06T04:06:41.670Z,94.15
2023-05-06T04:09:08.203Z,94.27
2023-05-06T04:11:35.552Z,94.24
2023-05-06T04:14:02.555Z,93.93
2023-05-06T04:16:29.264Z,94.00
2023-05-06T04:18:55.864Z,93.93
2023-05-06T04:21:22.363Z,93.72
2023-05-06T04:23:49.064Z,93.63
2023-05-06T04:26:15.606Z,93.65
2023-05-06T04:28:42.111Z,93.43
2023-05-06T04:31:08.883Z,93.30
2023-05-06T04:33:35.796Z,93.22
2023-05-06T04:36:03.530Z,92.98
2023-05-06T04:38:32.177Z,92.95
2023-05-06T04:40:59.466Z,92.93
2023-05-06T04:43:29.681Z,92.83
2023-05-06T04:45:56.228Z,92.57
2023-05-06T04:48:22.939Z,92.75
2023-05-06T04:50:50.648Z,92.76
2023-05-06T04:53:17.370Z,92.61
2023-05-06T04:55:43.939Z,92.75
2023-05-06T04:58:10.508Z,92.58
2023-05-06T05:00:37.076Z,92.59
2023-05-06T05:03:03.863Z,92.63
2023-05-06T05:05:32.009Z,92.72
2023-05-06T05:07:58.525Z,92.79
2023-05-06T05:10:25.058Z,92.84
2023-05-06T05:12:51.662Z,92.62
2023-05-06T05:15:18.400Z,92.31
2023-05-06T05:17:45.108Z,92.22
2023-05-06T05:20:12.062Z,92.42
2023-05-06T05:22:38.655Z,91.94
2023-05-06T05:25:07.066Z,91.61
2023-05-06T05:27:34.674Z,91.22
2023-05-06T05:30:01.201Z,90.87
2023-05-06T05:32:27.767Z,90.32
2023-05-06T05:34:54.483Z,90.10
2023-05-06T05:37:21.133Z,89.73
2023-05-06T05:39:47.777Z,89.50
2023-05-06T05:42:14.317Z,89.49
2023-05-06T05:44:41.032Z,89.19
2023-05-06T05:47:07.644Z,88.76
2023-05-06T05:49:34.221Z,88.21
2023-05-06T05:52:00.761Z,87.95
2023-05-06T05:54:27.281Z,88.01
2023-05-06T05:56:53.803Z,88.05
2023-05-06T05:59:20.379Z,87.63
2023-05-06T06:01:46.907Z,87.96
2023-05-06T06:04:13.556Z,87.86
2023-05-06T06:06:40.298Z,87.81
2023-05-06T06:09:07.296Z,88.06
2023-05-06T06:11:33.917Z,87.83
2023-05-06T06:14:00.999Z,87.14
2023-05-06T06:16:28.184Z,86.47
2023-05-06T06:18:54.764Z,85.63
2023-05-06T06:21:21.387Z,85.55
2023-05-06T06:23:47.918Z,85.38
2023-05-06T06:26:14.431Z,84.37
2023-05-06T06:28:41.916Z,84.02
2023-05-06T06:31:08.485Z,83.84
2023-05-06T06:33:34.973Z,83.61
2023-05-06T06:36:02.113Z,83.53
2023-05-06T06:38:28.728Z,83.07
2023-05-06T06:40:55.515Z,82.53
2023-05-06T06:43:23.762Z,83.49
2023-05-06T06:45:50.645Z,82.76
2023-05-06T06:48:17.230Z,82.03
2023-05-06T06:50:43.759Z,81.18
2023-05-06T06:53:11.032Z,80.17
2023-05-06T06:55:37.694Z,79.64
2023-05-06T06:58:04.178Z,79.42
2023-05-06T07:00:30.782Z,79.32
2023-05-06T07:02:57.381Z,78.25
2023-05-06T07:05:23.942Z,78.37
2023-05-06T07:07:50.517Z,79.28
2023-05-06T07:10:17.024Z,79.03
2023-05-06T07:12:43.539Z,77.89
2023-05-06T07:15:10.653Z,79.24
2023-05-06T07:17:37.331Z,79.98
2023-05-06T07:20:04.174Z,79.76
2023-05-06T07:22:30.757Z,79.80
2023-05-06T07:24:57.295Z,80.11
2023-05-06T07:27:24.218Z,80.43
2023-05-06T07:29:50.900Z,79.60
2023-05-06T07:32:17.858Z,79.23
2023-05-06T07:34:44.379Z,79.80
2023-05-06T07:37:10.945Z,79.97
2023-05-06T07:39:37.437Z,78.86
2023-05-06T07:42:04.070Z,77.89
2023-05-06T07:44:30.586Z,78.29
2023-05-06T07:46:57.266Z,77.85
2023-05-06T07:49:24.190Z,77.05
2023-05-06T07:51:51.108Z,77.45
2023-05-06T07:54:17.604Z,76.03
2023-05-06T07:56:44.167Z,75.34
2023-05-06T07:59:11.771Z,75.62
2023-05-06T08:01:38.372Z,75.35
2023-05-06T08:04:05.012Z,75.35
2023-05-06T08:06:32.321Z,74.68
2023-05-06T08:08:59.076Z,73.79
2023-05-06T08:11:25.701Z,73.30
2023-05-06T08:13:52.215Z,71.81
2023-05-06T08:16:18.808Z,71.29
2023-05-06T08:18:45.406Z,70.74
2023-05-06T08:21:11.940Z,69.17
2023-05-06T08:23:38.498Z,69.03
2023-05-06T08:26:05.129Z,66.79
2023-05-06T08:28:31.652Z,69.02
2023-05-06T08:30:58.145Z,68.96
2023-05-06T08:33:24.684Z,68.07
2023-05-06T08:35:51.204Z,67.49
2023-05-06T08:38:17.827Z,65.71
2023-05-06T08:40:45.014Z,65.69
2023-05-06T08:43:16.140Z,65.00
2023-05-06T08:45:42.850Z,63.16
2023-05-06T08:48:09.672Z,64.04
2023-05-06T08:50:41.986Z,62.05
2023-05-06T08:53:13.509Z,60.57
2023-05-06T08:55:41.852Z,60.91
2023-05-06T08:58:08.854Z,54.49
2023-05-06T09:00:35.776Z,57.16
2023-05-06T09:03:02.424Z,57.87
2023-05-06T09:05:29.055Z,54.61
2023-05-06T09:07:55.816Z,54.33
2023-05-06T09:10:22.371Z,55.55
2023-05-06T09:12:49.011Z,54.20
2023-05-06T09:15:16.373Z,55.35
2023-05-06T09:17:42.997Z,55.38
2023-05-06T09:20:12.379Z,55.65
2023-05-06T09:22:40.553Z,55.89
2023-05-06T09:25:07.846Z,54.82
2023-05-06T09:27:36.660Z,52.38
2023-05-06T09:30:12.568Z,54.76
2023-05-06T09:32:40.240Z,54.92
2023-05-06T09:35:08.558Z,52.25
2023-05-06T09:37:35.425Z,52.70
2023-05-06T09:40:02.008Z,53.45
2023-05-06T09:42:30.110Z,52.86
2023-05-06T09:45:01.064Z,54.11
2023-05-06T09:47:34.248Z,54.68
2023-05-06T09:50:01.910Z,55.32
2023-05-06T09:52:29.268Z,53.93
2023-05-06T09:54:56.077Z,51.83
2023-05-06T09:57:22.955Z,51.61
2023-05-06T09:59:52.056Z,51.03
2023-05-06T10:02:19.736Z,49.30
2023-05-06T10:04:46.527Z,48.16
2023-05-06T10:07:13.840Z,49.13
2023-05-06T10:09:41.199Z,50.93
2023-05-06T10:12:08.981Z,50.22
2023-05-06T10:14:38.597Z,50.91
2023-05-06T10:17:12.363Z,50.28
2023-05-06T10:19:46.545Z,50.16
2023-05-06T10:22:16.766Z,50.95
2023-05-06T10:24:52.430Z,51.85
2023-05-06T10:27:23.577Z,50.34
2023-05-06T10:29:52.652Z,48.28
2023-05-06T10:32:20.988Z,52.08
2023-05-06T10:34:54.543Z,50.92
2023-05-06T10:37:26.356Z,51.38
2023-05-06T10:39:54.684Z,49.87
2023-05-06T10:42:26.808Z,50.22
2023-05-06T10:45:04.112Z,51.06
2023-05-06T10:47:55.981Z,49.68
2023-05-06T10:50:23.233Z,48.43
2023-05-06T10:52:59.292Z,49.23
2023-05-06T10:55:32.652Z,49.20
2023-05-06T10:58:05.813Z,52.42
2023-05-06T11:00:33.727Z,52.65
2023-05-06T11:03:09.918Z,52.74
2023-05-06T11:05:52.159Z,52.60
2023-05-06T11:08:24.018Z,52.63
2023-05-06T11:10:51.130Z,52.51
2023-05-06T11:13:28.686Z,53.29
2023-05-06T11:15:56.384Z,53.77
2023-05-06T11:18:29.451Z,53.28
2023-05-06T11:21:04.925Z,51.60
2023-05-06T11:23:46.953Z,49.76
2023-05-06T11:26:14.204Z,50.23
2023-05-06T11:28:43.685Z,51.26
2023-05-06T11:31:10.464Z,52.58
2023-05-06T11:33:37.457Z,53.81
2023-05-06T11:36:04.933Z,54.45
2023-05-06T11:38:41.832Z,53.34
2023-05-06T11:41:08.377Z,53.72
2023-05-06T11:43:34.885Z,52.64
2023-05-06T11:46:01.652Z,51.71
2023-05-06T11:48:28.158Z,52.57
2023-05-06T11:50:55.703Z,51.27
2023-05-06T11:53:24.245Z,51.11
2023-05-06T11:55:54.191Z,52.82
2023-05-06T11:58:25.144Z,52.85
2023-05-06T12:01:01.883Z,51.72
2023-05-06T12:03:30.315Z,52.34
2023-05-06T12:05:57.788Z,52.44
2023-05-06T12:08:28.264Z,52.60
2023-05-06T12:11:03.588Z,51.94
2023-05-06T12:13:30.425Z,49.31
2023-05-06T12:15:59.268Z,51.75
2023-05-06T12:18:26.270Z,51.66
2023-05-06T12:20:56.709Z,52.91
2023-05-06T12:23:23.345Z,51.03
2023-05-06T12:26:06.641Z,51.18
2023-05-06T12:28:35.976Z,50.20
2023-05-06T12:31:21.930Z,49.14
2023-05-06T12:33:49.918Z,49.53
2023-05-06T12:36:17.045Z,51.59
2023-05-06T12:38:57.201Z,50.42
2023-05-06T12:41:25.781Z,50.29
2023-05-06T12:43:52.951Z,51.14
2023-05-06T12:46:19.659Z,51.20
2023-05-06T12:48:59.608Z,50.41
2023-05-06T12:51:27.229Z,50.80
2023-05-06T12:53:54.216Z,50.01
2023-05-06T12:56:24.241Z,50.92
2023-05-06T12:58:58.688Z,50.21
2023-05-06T13:01:25.179Z,51.40
2023-05-06T13:03:52.712Z,50.65
2023-05-06T13:06:19.281Z,51.10
2023-05-06T13:08:45.837Z,51.92
2023-05-06T13:11:12.483Z,50.18
2023-05-06T13:13:39.089Z,52.09
2023-05-06T13:16:06.190Z,52.88
2023-05-06T13:18:32.899Z,53.58
2023-05-06T13:21:00.316Z,52.75
2023-05-06T13:23:26.846Z,52.49
2023-05-06T13:26:03.565Z,53.24
2023-05-06T13:28:32.446Z,52.94
2023-05-06T13:30:59.113Z,52.57
2023-05-06T13:33:25.809Z,52.42
2023-05-06T13:35:52.433Z,52.53
2023-05-06T13:38:18.960Z,52.93
2023-05-06T13:40:48.167Z,52.42
2023-05-06T13:43:15.683Z,51.74
2023-05-06T13:45:43.741Z,50.42
2023-05-06T13:48:10.467Z,52.27
2023-05-06T13:50:37.262Z,51.62
2023-05-06T13:53:04.420Z,51.55
2023-05-06T13:55:30.939Z,51.45
2023-05-06T13:57:57.539Z,51.48
2023-05-06T14:00:24.069Z,50.63
2023-05-06T14:02:50.632Z,50.07
2023-05-06T14:05:17.292Z,50.85
2023-05-06T14:07:43.962Z,50.52
2023-05-06T14:10:11.722Z,50.01
2023-05-06T14:12:38.436Z,49.66
2023-05-06T14:15:09.655Z,49.98
2023-05-06T14:17:36.607Z,48.50
2023-05-06T14:20:05.168Z,47.36
2023-05-06T14:22:32.912Z,47.12
2023-05-06T14:24:59.502Z,47.32
2023-05-06T14:27:26.372Z,48.62
2023-05-06T14:29:52.987Z,47.34
2023-05-06T14:32:19.526Z,48.47
2023-05-06T14:34:46.080Z,47.72
2023-05-06T14:37:12.612Z,48.78
2023-05-06T14:39:39.122Z,48.27
2023-05-06T14:42:05.752Z,48.46
2023-05-06T14:44:32.479Z,47.74
2023-05-06T14:46:59.015Z,48.61
2023-05-06T14:49:25.524Z,47.64
2023-05-06T14:51:52.032Z,47.26
2023-05-06T14:54:18.507Z,46.74
2023-05-06T14:56:49.469Z,46.93
2023-05-06T14:59:18.258Z,48.36
2023-05-06T15:01:44.869Z,48.95
2023-05-06T15:04:11.473Z,49.68
2023-05-06T15:06:38.127Z,50.22
2023-05-06T15:09:04.928Z,50.61
2023-05-06T15:11:32.070Z,50.88
2023-05-06T15:13:58.574Z,50.55
2023-05-06T15:16:25.194Z,50.83
2023-05-06T15:18:51.745Z,50.68
2023-05-06T15:21:18.255Z,50.73
2023-05-06T15:23:46.997Z,50.98
2023-05-06T15:26:13.731Z,51.46
2023-05-06T15:28:40.293Z,51.32
2023-05-06T15:31:06.776Z,51.97
2023-05-06T15:33:36.018Z,52.42
2023-05-06T15:36:02.550Z,53.72
2023-05-06T15:38:29.126Z,52.81
2023-05-06T15:40:55.694Z,53.01
2023-05-06T15:43:24.273Z,52.44
2023-05-06T15:45:51.372Z,51.81
2023-05-06T15:48:17.925Z,53.00
2023-05-06T15:50:44.580Z,52.70
2023-05-06T15:53:11.538Z,54.50
2023-05-06T15:55:45.485Z,54.58
2023-05-06T15:58:13.459Z,55.49
2023-05-06T16:00:40.106Z,56.01
2023-05-06T16:03:09.736Z,56.05
2023-05-06T16:05:38.295Z,59.31
2023-05-06T16:08:04.987Z,61.79
2023-05-06T16:10:31.471Z,65.96
2023-05-06T16:12:58.084Z,70.39
2023-05-06T16:15:24.607Z,72.51
2023-05-06T16:17:51.202Z,74.60
2023-05-06T16:20:17.778Z,75.44
2023-05-06T16:22:50.407Z,76.13
2023-05-06T16:25:17.092Z,77.78
2023-05-06T16:27:43.630Z,77.30
2023-05-06T16:30:10.924Z,75.77
2023-05-06T16:32:37.668Z,74.46
2023-05-06T16:35:04.390Z,72.36
2023-05-06T16:37:31.154Z,73.61
2023-05-06T16:39:57.705Z,75.02
2023-05-06T16:42:24.328Z,74.52
2023-05-06T16:44:51.606Z,75.33
2023-05-06T16:47:23.361Z,76.91
2023-05-06T16:49:50.713Z,78.20
2023-05-06T16:52:17.960Z,78.10
2023-05-06T16:54:44.524Z,77.29
2023-05-06T16:57:11.131Z,77.21
2023-05-06T16:59:37.815Z,77.52
2023-05-06T17:02:04.342Z,79.03
2023-05-06T17:04:30.969Z,79.52
2023-05-06T17:06:57.662Z,80.06
2023-05-06T17:09:24.177Z,80.07
2023-05-06T17:11:50.767Z,81.24
2023-05-06T17:14:17.280Z,80.78
2023-05-06T17:16:44.038Z,80.63
2023-05-06T17:19:11.907Z,79.71
2023-05-06T17:21:38.420Z,79.89
2023-05-06T17:24:05.462Z,79.61
2023-05-06T17:26:32.792Z,80.52
2023-05-06T17:29:00.060Z,80.66
2023-05-06T17:31:26.994Z,80.52
2023-05-06T17:33:53.609Z,80.23
2023-05-06T17:36:22.982Z,79.00
2023-05-06T17:38:52.998Z,79.79
2023-05-06T17:41:19.617Z,80.16
2023-05-06T17:43:47.502Z,79.68
2023-05-06T17:46:14.088Z,80.51
2023-05-06T17:48:40.616Z,81.13
2023-05-06T17:51:07.203Z,81.05
2023-05-06T17:53:34.171Z,80.29
2023-05-06T17:56:00.730Z,81.19
2023-05-06T17:58:27.309Z,81.72
2023-05-06T18:00:53.929Z,81.25
2023-05-06T18:03:20.679Z,81.21
2023-05-06T18:05:47.329Z,80.82
2023-05-06T18:08:13.840Z,80.37
2023-05-06T18:10:41.480Z,80.61
2023-05-06T18:13:08.299Z,82.13
2023-05-06T18:15:34.882Z,82.82
2023-05-06T18:18:01.466Z,83.51
2023-05-06T18:20:28.397Z,84.09
2023-05-06T18:22:54.952Z,84.74
2023-05-06T18:25:21.707Z,85.81
2023-05-06T18:27:48.276Z,86.26
2023-05-06T18:30:15.908Z,86.18
2023-05-06T18:32:42.499Z,86.42
2023-05-06T18:35:10.886Z,86.28
2023-05-06T18:37:37.704Z,85.91
2023-05-06T18:40:05.898Z,86.94
2023-05-06T18:42:33.330Z,86.91
2023-05-06T18:45:01.510Z,87.08
2023-05-06T18:47:28.013Z,87.45
2023-05-06T18:49:54.785Z,87.71
2023-05-06T18:52:21.923Z,87.89
2023-05-06T18:54:48.402Z,88.14
2023-05-06T18:57:15.078Z,88.12
2023-05-06T18:59:41.817Z,87.48
2023-05-06T19:02:08.512Z,86.89
2023-05-06T19:04:35.171Z,86.42
2023-05-06T19:07:01.844Z,86.15
2023-05-06T19:09:28.382Z,85.96
2023-05-06T19:11:55.781Z,85.85
2023-05-06T19:14:23.649Z,85.67
2023-05-06T19:16:52.111Z,86.10
2023-05-06T19:19:18.624Z,86.17
2023-05-06T19:21:45.121Z,86.26
2023-05-06T19:24:11.795Z,86.34
2023-05-06T19:26:39.139Z,86.71
2023-05-06T19:29:05.733Z,86.83
2023-05-06T19:31:32.679Z,86.80
2023-05-06T19:33:59.274Z,86.98
2023-05-06T19:36:25.788Z,86.67
2023-05-06T19:38:52.279Z,86.68
2023-05-06T19:41:18.782Z,86.56
2023-05-06T19:43:45.556Z,86.46
2023-05-06T19:46:12.436Z,86.11
2023-05-06T19:48:39.063Z,85.99
2023-05-06T19:51:06.545Z,86.35
2023-05-06T19:53:34.053Z,86.38
2023-05-06T19:56:13.383Z,85.96
2023-05-06T19:58:40.260Z,86.11
2023-05-06T20:01:06.852Z,86.13
2023-05-06T20:03:33.633Z,85.98
2023-05-06T20:06:00.292Z,85.85
2023-05-06T20:08:26.974Z,85.85
2023-05-06T20:10:53.564Z,86.09
2023-05-06T20:13:20.445Z,85.48
2023-05-06T20:15:47.539Z,85.44
2023-05-06T20:18:14.904Z,85.37
2023-05-06T20:20:41.462Z,85.51
2023-05-06T20:23:08.010Z,85.65
2023-05-06T20:25:36.854Z,85.38
2023-05-06T20:28:05.418Z,85.61
2023-05-06T20:30:31.989Z,86.09
2023-05-06T20:32:58.886Z,86.18
2023-05-06T20:35:26.147Z,85.83
2023-05-06T20:37:54.476Z,86.05
2023-05-06T20:40:21.168Z,85.59
2023-05-06T20:42:48.331Z,85.81
2023-05-06T20:45:15.050Z,86.19
2023-05-06T20:47:41.741Z,86.24
2023-05-06T20:50:08.631Z,86.10
2023-05-06T20:52:35.153Z,86.35
2023-05-06T20:55:02.096Z,86.53
2023-05-06T20:57:28.718Z,86.36
2023-05-06T20:59:56.142Z,86.49
2023-05-06T21:02:22.907Z,86.58
2023-05-06T21:04:49.495Z,87.05
2023-05-06T21:07:15.993Z,87.58
2023-05-06T21:09:42.529Z,88.12
2023-05-06T21:12:09.221Z,88.26
2023-05-06T21:14:35.764Z,88.59
2023-05-06T21:17:02.368Z,89.10
2023-05-06T21:19:29.178Z,89.29
2023-05-06T21:21:56.709Z,89.14
2023-05-06T21:24:23.287Z,89.41
2023-05-06T21:26:51.268Z,89.88
2023-05-06T21:29:17.815Z,89.71
2023-05-06T21:31:44.346Z,89.83
2023-05-06T21:34:10.913Z,89.90
2023-05-06T21:36:37.562Z,89.47
2023-05-06T21:39:09.689Z,89.49
2023-05-06T21:41:37.036Z,89.27
2023-05-06T21:44:07.760Z,89.05
2023-05-06T21:46:34.997Z,88.79
2023-05-06T21:49:01.677Z,88.94
2023-05-06T21:51:29.430Z,89.18
2023-05-06T21:53:55.966Z,89.07
2023-05-06T21:56:22.765Z,89.06
2023-05-06T21:58:49.353Z,88.91
2023-05-06T22:01:16.281Z,88.68
2023-05-06T22:03:45.248Z,88.58
2023-05-06T22:06:12.608Z,88.16
2023-05-06T22:08:39.858Z,88.09
2023-05-06T22:11:06.828Z,88.17
2023-05-06T22:13:33.386Z,88.39
2023-05-06T22:15:59.948Z,87.90
2023-05-06T22:18:27.946Z,88.24
2023-05-06T22:20:56.577Z,88.10
2023-05-06T22:23:23.984Z,88.23
2023-05-06T22:25:52.064Z,87.74
2023-05-06T22:28:19.369Z,88.14
2023-05-06T22:30:46.315Z,88.06
2023-05-06T22:33:12.882Z,88.20
2023-05-06T22:35:39.423Z,88.40
2023-05-06T22:38:05.961Z,88.44
2023-05-06T22:40:32.490Z,88.72
2023-05-06T22:42:59.000Z,88.72
2023-05-06T22:45:25.714Z,88.42
2023-05-06T22:47:52.280Z,88.19
2023-05-06T22:50:18.858Z,88.28
2023-05-06T22:52:45.506Z,87.68
2023-05-06T22:55:12.407Z,87.24
2023-05-06T22:57:39.189Z,86.72
2023-05-06T23:00:07.516Z,86.24
2023-05-06T23:02:34.256Z,86.62
2023-05-06T23:05:01.023Z,86.64
2023-05-06T23:07:27.515Z,86.42
2023-05-06T23:09:54.098Z,86.75
2023-05-06T23:12:20.681Z,86.68
2023-05-06T23:14:47.251Z,86.59
2023-05-06T23:17:13.932Z,86.98
2023-05-06T23:19:40.646Z,87.19
2023-05-06T23:22:07.227Z,87.47
2023-05-06T23:24:33.895Z,87.93
2023-05-06T23:27:01.111Z,87.71
2023-05-06T23:29:27.639Z,88.25
2023-05-06T23:31:54.358Z,88.44
2023-05-06T23:34:20.889Z,88.65
2023-05-06T23:36:47.406Z,89.30
2023-05-06T23:39:13.944Z,89.11
2023-05-06T23:41:40.635Z,89.87
2023-05-06T23:44:07.139Z,89.29
2023-05-06T23:46:33.670Z,89.73
2023-05-06T23:49:00.627Z,89.73
2023-05-06T23:51:27.178Z,89.52
2023-05-06T23:53:53.730Z,89.75
2023-05-06T23:56:21.708Z,89.95
2023-05-06T23:58:48.338Z,89.71
